createdAt,value
2018-11-26T00:00:02.913Z,100.00
2018-11-26T00:03:12.402Z,100.00
2018-11-26T00:06:17.455Z,100.00
2018-11-26T00:09:22.140Z,100.00
2018-11-26T00:12:26.762Z,100.00
2018-11-26T00:15:32.239Z,100.00
2018-11-26T00:18:39.593Z,100.00
2018-11-26T00:21:43.876Z,100.00
2018-11-26T00:24:48.167Z,100.00
2018-11-26T00:27:52.433Z,100.00
2018-11-26T00:30:57.141Z,100.00
2018-11-26T00:34:01.464Z,100.00
2018-11-26T00:37:05.837Z,100.00
2018-11-26T00:40:11.817Z,100.00
2018-11-26T00:43:16.093Z,100.00
2018-11-26T00:46:20.831Z,100.00
2018-11-26T00:49:25.961Z,100.00
2018-11-26T00:52:30.599Z,100.00
2018-11-26T00:55:35.125Z,100.00
2018-11-26T00:58:39.421Z,100.00
2018-11-26T01:01:43.978Z,100.00
2018-11-26T01:04:48.456Z,100.00
2018-11-26T01:07:53.784Z,100.00
2018-11-26T01:10:58.111Z,100.00
2018-11-26T01:14:02.411Z,100.00
2018-11-26T01:17:08.384Z,100.00
2018-11-26T01:20:14.559Z,100.00
2018-11-26T01:23:39.021Z,100.00
2018-11-26T01:26:58.812Z,100.00
2018-11-26T01:30:03.662Z,100.00
2018-11-26T01:33:08.047Z,100.00
2018-11-26T01:36:12.316Z,100.00
2018-11-26T01:39:16.971Z,100.00
2018-11-26T01:42:21.290Z,100.00
2018-11-26T01:45:25.629Z,100.00
2018-11-26T01:48:30.029Z,100.00
2018-11-26T01:51:34.311Z,100.00
2018-11-26T01:54:38.628Z,100.00
2018-11-26T01:57:42.963Z,100.00
2018-11-26T02:00:47.280Z,100.00
2018-11-26T02:03:51.620Z,100.00
2018-11-26T02:06:55.941Z,100.00
2018-11-26T02:10:00.264Z,100.00
2018-11-26T02:13:04.658Z,100.00
2018-11-26T02:16:09.038Z,100.00
2018-11-26T02:19:13.325Z,100.00
2018-11-26T02:22:18.094Z,100.00
2018-11-26T02:25:22.522Z,100.00
2018-11-26T02:28:26.870Z,100.00
2018-11-26T02:31:31.209Z,100.00
2018-11-26T02:34:35.489Z,100.00
2018-11-26T02:37:39.798Z,100.00
2018-11-26T02:40:44.072Z,100.00
2018-11-26T02:43:48.432Z,100.00
2018-11-26T02:46:54.262Z,100.00
2018-11-26T02:50:00.984Z,100.00
2018-11-26T02:53:06.015Z,100.00
2018-11-26T02:56:10.428Z,100.00
2018-11-26T02:59:14.838Z,100.00
2018-11-26T03:02:19.102Z,100.00
2018-11-26T03:05:29.511Z,100.00
2018-11-26T03:08:35.602Z,100.00
2018-11-26T03:11:39.986Z,100.00
2018-11-26T03:14:44.892Z,100.00
2018-11-26T03:17:49.199Z,100.00
2018-11-26T03:20:53.448Z,100.00
2018-11-26T03:23:57.781Z,100.00
2018-11-26T03:27:02.465Z,100.00
2018-11-26T03:30:17.954Z,100.00
2018-11-26T03:33:22.241Z,100.00
2018-11-26T03:36:26.514Z,100.00
2018-11-26T03:39:31.349Z,100.00
2018-11-26T03:42:37.297Z,100.00
2018-11-26T03:45:42.625Z,100.00
2018-11-26T03:48:47.343Z,100.00
2018-11-26T03:51:51.612Z,100.00
2018-11-26T03:54:55.912Z,100.00
2018-11-26T03:58:00.202Z,100.00
2018-11-26T04:01:04.641Z,100.00
2018-11-26T04:04:08.905Z,100.00
2018-11-26T04:07:13.177Z,100.00
2018-11-26T04:10:17.466Z,100.00
2018-11-26T04:13:21.775Z,100.00
2018-11-26T04:16:26.618Z,100.00
2018-11-26T04:19:30.895Z,100.00
2018-11-26T04:22:35.210Z,100.00
2018-11-26T04:25:40.694Z,100.00
2018-11-26T04:28:45.090Z,100.00
2018-11-26T04:31:49.381Z,100.00
2018-11-26T04:34:53.718Z,100.00
2018-11-26T04:37:58.056Z,100.00
2018-11-26T04:41:03.863Z,100.00
2018-11-26T04:44:08.179Z,100.00
2018-11-26T04:47:12.514Z,100.00
2018-11-26T04:50:16.857Z,100.00
2018-11-26T04:53:21.146Z,100.00
2018-11-26T04:56:25.514Z,100.00
2018-11-26T04:59:30.474Z,100.00
2018-11-26T05:02:36.481Z,100.00
2018-11-26T05:05:42.020Z,100.00
2018-11-26T05:08:46.361Z,100.00
2018-11-26T05:11:50.631Z,100.00
2018-11-26T05:14:54.909Z,100.00
2018-11-26T05:18:00.290Z,100.00
2018-11-26T05:21:04.684Z,100.00
2018-11-26T05:24:09.150Z,100.00
2018-11-26T05:27:13.360Z,100.00
2018-11-26T05:30:17.674Z,100.00
2018-11-26T05:33:22.070Z,100.00
2018-11-26T05:36:26.414Z,100.00
2018-11-26T05:39:30.752Z,100.00
2018-11-26T05:42:35.045Z,100.00
2018-11-26T05:45:41.063Z,100.00
2018-11-26T05:48:45.429Z,100.00
2018-11-26T05:51:49.926Z,100.00
2018-11-26T05:54:54.204Z,100.00
2018-11-26T05:58:00.201Z,100.00
2018-11-26T06:01:05.129Z,100.00
2018-11-26T06:04:09.769Z,100.00
2018-11-26T06:07:14.174Z,100.00
2018-11-26T06:10:18.560Z,100.00
2018-11-26T06:13:22.852Z,100.00
2018-11-26T06:16:27.300Z,100.00
2018-11-26T06:19:31.621Z,100.00
2018-11-26T06:22:36.004Z,100.00
2018-11-26T06:25:40.441Z,100.00
2018-11-26T06:28:44.852Z,100.00
2018-11-26T06:31:50.455Z,100.00
2018-11-26T06:34:54.873Z,100.00
2018-11-26T06:37:59.161Z,100.00
2018-11-26T06:41:03.477Z,100.00
2018-11-26T06:44:08.220Z,100.00
2018-11-26T06:47:12.601Z,100.00
2018-11-26T06:50:19.990Z,100.00
2018-11-26T06:53:24.905Z,100.00
2018-11-26T06:56:29.249Z,100.00
2018-11-26T06:59:33.621Z,100.00
2018-11-26T07:02:38.791Z,100.00
2018-11-26T07:05:43.205Z,100.00
2018-11-26T07:08:47.524Z,100.00
2018-11-26T07:11:52.333Z,100.00
2018-11-26T07:14:56.748Z,100.00
2018-11-26T07:18:01.058Z,100.00
2018-11-26T07:21:06.529Z,100.00
2018-11-26T07:24:10.801Z,100.00
2018-11-26T07:27:15.350Z,100.00
2018-11-26T07:30:24.125Z,100.00
2018-11-26T07:33:28.550Z,100.00
2018-11-26T07:36:33.536Z,100.00
2018-11-26T07:39:37.887Z,100.00
2018-11-26T07:42:46.433Z,100.00
2018-11-26T07:45:50.769Z,100.00
2018-11-26T07:48:55.054Z,100.00
2018-11-26T07:51:59.352Z,100.00
2018-11-26T07:55:04.538Z,100.00
2018-11-26T07:58:09.119Z,100.00
2018-11-26T08:01:13.850Z,100.00
2018-11-26T08:04:18.106Z,100.00
2018-11-26T08:07:22.388Z,100.00
2018-11-26T08:10:26.720Z,100.00
2018-11-26T08:13:31.038Z,100.00
2018-11-26T08:16:36.483Z,100.00
2018-11-26T08:19:40.758Z,100.00
2018-11-26T08:22:45.247Z,100.00
2018-11-26T08:25:49.582Z,100.00
2018-11-26T08:28:53.867Z,100.00
2018-11-26T08:31:58.130Z,100.00
2018-11-26T08:35:02.680Z,100.00
2018-11-26T08:38:18.360Z,100.00
2018-11-26T08:41:26.719Z,100.00
2018-11-26T08:44:36.426Z,100.00
2018-11-26T08:47:44.124Z,100.00
2018-11-26T08:50:48.979Z,100.00
2018-11-26T08:53:53.740Z,100.00
2018-11-26T08:57:03.168Z,100.00
2018-11-26T09:00:14.196Z,100.00
2018-11-26T09:03:23.229Z,100.00
2018-11-26T09:06:31.827Z,100.00
2018-11-26T09:09:40.523Z,100.00
2018-11-26T09:12:49.499Z,100.00
2018-11-26T09:15:56.080Z,100.00
2018-11-26T09:19:01.487Z,100.00
2018-11-26T09:22:09.267Z,100.00
2018-11-26T09:25:14.883Z,100.00
2018-11-26T09:28:19.727Z,100.00
2018-11-26T09:31:24.289Z,100.00
2018-11-26T09:37:58.804Z,100.00
2018-11-26T09:41:03.517Z,100.00
2018-11-26T09:44:08.460Z,100.00
2018-11-26T09:47:12.963Z,100.00
2018-11-26T09:50:22.018Z,100.00
2018-11-26T09:53:26.350Z,100.00
2018-11-26T09:56:31.150Z,100.00
2018-11-26T09:59:35.665Z,100.00
2018-11-26T10:02:43.436Z,100.00
2018-11-26T10:05:47.830Z,100.00
2018-11-26T10:08:52.451Z,100.00
2018-11-26T10:12:05.180Z,100.00
2018-11-26T10:15:18.421Z,100.00
2018-11-26T10:18:22.991Z,100.00
2018-11-26T10:21:27.356Z,100.00
2018-11-26T10:24:32.687Z,100.00
2018-11-26T10:27:37.005Z,100.00
2018-11-26T10:30:41.940Z,100.00
2018-11-26T10:33:49.521Z,100.00
2018-11-26T10:36:53.985Z,100.00
2018-11-26T10:39:58.266Z,100.00
2018-11-26T10:43:03.673Z,100.00
2018-11-26T10:46:08.513Z,100.00
2018-11-26T10:49:12.912Z,100.00
2018-11-26T10:52:17.575Z,100.00
2018-11-26T10:55:24.103Z,100.00
2018-11-26T10:58:28.445Z,100.00
2018-11-26T11:01:44.451Z,100.00
2018-11-26T11:04:49.075Z,100.00
2018-11-26T11:07:53.323Z,100.00
2018-11-26T11:11:00.150Z,100.00
2018-11-26T11:14:04.511Z,100.00
2018-11-26T11:17:08.490Z,100.00
2018-11-26T11:20:20.401Z,100.00
2018-11-26T11:23:24.961Z,100.00
2018-11-26T11:26:29.382Z,100.00
2018-11-26T11:29:33.693Z,100.00
2018-11-26T11:32:38.164Z,100.00
2018-11-26T11:35:42.434Z,100.00
2018-11-26T11:38:46.981Z,100.00
2018-11-26T11:41:52.399Z,100.00
2018-11-26T11:45:00.235Z,100.00
2018-11-26T11:48:04.554Z,100.00
2018-11-26T11:51:09.071Z,100.00
2018-11-26T11:54:15.239Z,100.00
2018-11-26T11:57:19.613Z,100.00
2018-11-26T12:00:32.017Z,100.00
2018-11-26T12:03:36.481Z,100.00
2018-11-26T12:06:41.108Z,99.73
2018-11-26T12:09:45.466Z,100.00
2018-11-26T12:12:49.846Z,100.00
2018-11-26T12:15:54.326Z,99.78
2018-11-26T12:18:58.621Z,99.36
2018-11-26T12:22:03.013Z,99.47
2018-11-26T12:25:13.307Z,99.66
2018-11-26T12:28:17.604Z,99.77
2018-11-26T12:31:22.686Z,99.67
2018-11-26T12:34:27.026Z,99.31
2018-11-26T12:40:53.913Z,97.59
2018-11-26T12:43:58.311Z,98.01
2018-11-26T12:47:02.616Z,98.73
2018-11-26T12:50:07.400Z,99.12
2018-11-26T12:53:13.203Z,99.43
2018-11-26T12:56:17.474Z,99.87
2018-11-26T12:59:21.744Z,100.00
2018-11-26T13:02:26.045Z,100.00
2018-11-26T13:05:30.353Z,100.00
2018-11-26T13:08:34.710Z,99.86
2018-11-26T13:11:38.989Z,99.19
2018-11-26T13:14:45.017Z,99.55
2018-11-26T13:17:49.334Z,99.98
2018-11-26T13:20:53.649Z,98.40
2018-11-26T13:23:57.944Z,98.99
2018-11-26T13:27:02.244Z,99.37
2018-11-26T13:30:13.313Z,99.33
2018-11-26T13:33:19.336Z,99.23
2018-11-26T13:36:23.607Z,98.71
2018-11-26T13:39:27.920Z,98.86
2018-11-26T13:42:32.548Z,98.45
2018-11-26T13:45:39.206Z,99.58
2018-11-26T13:48:43.529Z,99.29
2018-11-26T13:51:47.895Z,100.00
2018-11-26T13:54:52.235Z,100.00
2018-11-26T13:57:56.525Z,100.00
2018-11-26T14:01:00.857Z,100.00
2018-11-26T14:04:05.793Z,100.00
2018-11-26T14:07:10.664Z,100.00
2018-11-26T14:10:22.669Z,100.00
2018-11-26T14:13:27.064Z,100.00
2018-11-26T14:16:31.458Z,100.00
2018-11-26T14:19:36.671Z,100.00
2018-11-26T14:22:41.048Z,100.00
2018-11-26T14:25:45.481Z,100.00
2018-11-26T14:28:49.820Z,100.00
2018-11-26T14:31:54.199Z,100.00
2018-11-26T14:34:58.591Z,100.00
2018-11-26T14:38:06.939Z,100.00
2018-11-26T14:41:11.251Z,100.00
2018-11-26T14:44:15.613Z,100.00
2018-11-26T14:47:20.705Z,100.00
2018-11-26T14:50:25.393Z,100.00
2018-11-26T14:53:29.688Z,100.00
2018-11-26T14:56:34.084Z,100.00
2018-11-26T14:59:38.392Z,100.00
2018-11-26T15:02:43.689Z,100.00
2018-11-26T15:05:47.159Z,100.00
2018-11-26T15:08:51.466Z,100.00
2018-11-26T15:11:55.840Z,100.00
2018-11-26T15:15:02.916Z,100.00
2018-11-26T15:18:07.311Z,100.00
2018-11-26T15:21:11.752Z,100.00
2018-11-26T15:24:16.210Z,100.00
2018-11-26T15:27:20.506Z,100.00
2018-11-26T15:30:26.716Z,100.00
2018-11-26T15:33:31.174Z,100.00
2018-11-26T15:36:35.761Z,100.00
2018-11-26T15:39:39.929Z,100.00
2018-11-26T15:42:44.239Z,99.54
2018-11-26T15:45:48.675Z,98.44
2018-11-26T15:48:53.191Z,98.13
2018-11-26T15:51:57.543Z,98.02
2018-11-26T15:55:01.988Z,98.37
2018-11-26T15:58:07.703Z,98.67
2018-11-26T16:01:12.504Z,98.30
2018-11-26T16:04:18.108Z,98.50
2018-11-26T16:07:22.591Z,98.01
2018-11-26T16:10:26.951Z,97.24
2018-11-26T16:13:31.400Z,97.89
2018-11-26T16:16:36.208Z,97.56
2018-11-26T16:19:40.791Z,97.49
2018-11-26T16:22:45.199Z,97.31
2018-11-26T16:25:50.929Z,96.56
2018-11-26T16:28:55.337Z,96.52
2018-11-26T16:31:59.759Z,96.00
2018-11-26T16:35:04.268Z,96.53
2018-11-26T16:38:10.283Z,95.38
2018-11-26T16:41:14.761Z,95.84
2018-11-26T16:44:19.469Z,95.09
2018-11-26T16:47:35.928Z,95.34
2018-11-26T16:50:40.268Z,94.79
2018-11-26T16:53:44.879Z,93.90
2018-11-26T16:56:49.321Z,95.48
2018-11-26T16:59:53.930Z,94.81
2018-11-26T17:03:00.088Z,94.33
2018-11-26T17:06:07.173Z,94.18
2018-11-26T17:09:21.306Z,93.91
2018-11-26T17:12:26.659Z,94.11
2018-11-26T17:15:31.098Z,94.58
2018-11-26T17:18:35.420Z,94.56
2018-11-26T17:21:39.800Z,94.46
2018-11-26T17:24:44.216Z,94.70
2018-11-26T17:27:49.017Z,94.48
2018-11-26T17:30:54.640Z,95.60
2018-11-26T17:33:59.091Z,96.23
2018-11-26T17:37:03.493Z,95.72
2018-11-26T17:40:14.162Z,96.36
2018-11-26T17:43:20.610Z,96.76
2018-11-26T17:46:25.082Z,98.07
2018-11-26T17:49:29.470Z,98.04
2018-11-26T17:52:34.027Z,98.11
2018-11-26T17:55:50.500Z,98.50
2018-11-26T17:58:54.811Z,98.48
2018-11-26T18:01:59.477Z,98.72
2018-11-26T18:05:03.906Z,98.52
2018-11-26T18:08:10.920Z,98.57
2018-11-26T18:11:15.530Z,98.35
2018-11-26T18:14:20.023Z,98.14
2018-11-26T18:17:24.368Z,98.38
2018-11-26T18:20:29.129Z,98.98
2018-11-26T18:23:33.486Z,97.99
2018-11-26T18:26:37.883Z,97.72
2018-11-26T18:29:42.450Z,97.58
2018-11-26T18:32:46.927Z,95.79
2018-11-26T18:35:51.396Z,96.40
2018-11-26T18:38:55.689Z,96.51
2018-11-26T18:42:00.133Z,96.90
2018-11-26T18:45:04.880Z,96.58
2018-11-26T18:48:10.815Z,97.14
2018-11-26T18:51:15.684Z,96.61
2018-11-26T18:54:21.250Z,97.59
2018-11-26T18:57:25.583Z,96.99
2018-11-26T19:03:50.113Z,96.67
2018-11-26T19:06:54.863Z,96.37
2018-11-26T19:10:00.953Z,97.11
2018-11-26T19:13:16.199Z,95.84
2018-11-26T19:16:26.265Z,95.82
2018-11-26T19:19:32.089Z,95.90
2018-11-26T19:22:37.334Z,95.20
2018-11-26T19:25:41.850Z,94.82
2018-11-26T19:28:46.312Z,95.13
2018-11-26T19:31:55.860Z,95.69
2018-11-26T19:34:55.321Z,97.28
2018-11-26T19:37:59.733Z,96.78
2018-11-26T19:41:04.203Z,98.43
2018-11-26T19:44:08.543Z,98.66
2018-11-26T19:47:12.955Z,98.08
2018-11-26T19:50:19.150Z,97.86
2018-11-26T19:53:24.172Z,98.81
2018-11-26T19:56:28.548Z,98.46
2018-11-26T19:59:34.570Z,97.92
2018-11-26T20:02:39.055Z,98.63
2018-11-26T20:06:13.494Z,99.21
2018-11-26T20:09:18.199Z,98.62
2018-11-26T20:12:22.629Z,99.39
2018-11-26T20:15:26.990Z,99.56
2018-11-26T20:18:31.399Z,98.77
2018-11-26T20:21:36.015Z,98.83
2018-11-26T20:24:40.413Z,98.81
2018-11-26T20:27:45.371Z,98.84
2018-11-26T20:30:49.655Z,100.00
2018-11-26T20:33:54.035Z,99.60
2018-11-26T20:36:58.439Z,99.48
2018-11-26T20:40:02.798Z,100.00
2018-11-26T20:43:10.179Z,99.52
2018-11-26T20:46:14.629Z,99.77
2018-11-26T20:49:20.800Z,100.00
2018-11-26T20:52:25.156Z,100.00
2018-11-26T20:55:29.533Z,100.00
2018-11-26T20:58:34.140Z,100.00
2018-11-26T21:01:39.010Z,100.00
2018-11-26T21:04:43.476Z,100.00
2018-11-26T21:07:47.962Z,100.00
2018-11-26T21:10:52.477Z,100.00
2018-11-26T21:13:56.945Z,100.00
2018-11-26T21:17:01.286Z,100.00
2018-11-26T21:20:12.554Z,100.00
2018-11-26T21:23:27.301Z,100.00
2018-11-26T21:26:31.631Z,100.00
2018-11-26T21:29:36.023Z,100.00
2018-11-26T21:32:40.487Z,100.00
2018-11-26T21:35:45.928Z,100.00
2018-11-26T21:38:50.278Z,100.00
2018-11-26T21:41:55.706Z,100.00
2018-11-26T21:45:00.007Z,100.00
2018-11-26T21:48:04.276Z,100.00
2018-11-26T21:51:08.554Z,100.00
2018-11-26T21:54:12.841Z,100.00
2018-11-26T21:57:17.123Z,100.00
2018-11-26T22:00:27.289Z,100.00
2018-11-26T22:03:31.618Z,100.00
2018-11-26T22:06:35.952Z,100.00
2018-11-26T22:09:40.269Z,100.00
2018-11-26T22:12:47.407Z,100.00
2018-11-26T22:15:51.730Z,100.00
2018-11-26T22:18:56.093Z,100.00
2018-11-26T22:22:00.419Z,100.00
2018-11-26T22:25:05.315Z,100.00
2018-11-26T22:28:11.155Z,100.00
2018-11-26T22:31:15.481Z,100.00
2018-11-26T22:34:19.772Z,100.00
2018-11-26T22:37:24.173Z,100.00
2018-11-26T22:40:28.586Z,100.00
2018-11-26T22:43:32.962Z,100.00
2018-11-26T22:46:37.381Z,100.00
2018-11-26T22:49:41.881Z,100.00
2018-11-26T22:52:46.217Z,100.00
2018-11-26T22:55:50.492Z,100.00
2018-11-26T22:58:54.825Z,100.00
2018-11-26T23:01:59.245Z,100.00
2018-11-26T23:05:03.556Z,100.00
2018-11-26T23:08:07.883Z,100.00
2018-11-26T23:11:13.430Z,100.00
2018-11-26T23:14:17.754Z,100.00
2018-11-26T23:17:22.092Z,100.00
2018-11-26T23:20:26.459Z,100.00
2018-11-26T23:23:30.784Z,100.00
2018-11-26T23:26:35.077Z,100.00
2018-11-26T23:29:39.392Z,100.00
2018-11-26T23:32:44.224Z,100.00
2018-11-26T23:35:48.836Z,100.00
2018-11-26T23:38:53.204Z,100.00
2018-11-26T23:41:57.523Z,100.00
2018-11-26T23:45:01.881Z,100.00
2018-11-26T23:48:07.063Z,100.00
2018-11-26T23:51:11.662Z,100.00
2018-11-26T23:54:16.501Z,100.00
2018-11-26T23:57:20.934Z,100.00
